createdAt,value
2022-10-19T00:01:31.357Z,87.84
2022-10-19T00:03:58.885Z,87.72
2022-10-19T00:06:28.642Z,87.77
2022-10-19T00:09:01.325Z,87.60
2022-10-19T00:11:28.939Z,88.07
2022-10-19T00:13:57.001Z,87.90
2022-10-19T00:16:28.902Z,88.03
2022-10-19T00:19:00.510Z,87.79
2022-10-19T00:21:27.774Z,87.67
2022-10-19T00:23:54.212Z,87.37
2022-10-19T00:26:20.642Z,87.68
2022-10-19T00:28:47.453Z,87.65
2022-10-19T00:31:16.604Z,87.74
2022-10-19T00:33:49.306Z,87.48
2022-10-19T00:36:23.225Z,87.74
2022-10-19T00:38:50.191Z,87.97
2022-10-19T00:41:17.768Z,87.74
2022-10-19T00:44:28.728Z,87.58
2022-10-19T00:46:59.756Z,87.51
2022-10-19T00:49:29.868Z,87.63
2022-10-19T00:52:01.580Z,87.85
2022-10-19T00:54:28.864Z,87.80
2022-10-19T00:56:57.841Z,87.67
2022-10-19T00:59:25.581Z,87.84
2022-10-19T01:01:53.260Z,87.41
2022-10-19T01:04:25.261Z,87.74
2022-10-19T01:06:53.571Z,87.64
2022-10-19T01:09:20.690Z,87.70
2022-10-19T01:12:03.839Z,87.70
2022-10-19T01:14:52.158Z,87.48
2022-10-19T01:17:43.465Z,87.71
2022-10-19T01:20:33.175Z,87.67
2022-10-19T01:23:17.093Z,87.65
2022-10-19T01:25:49.705Z,87.62
2022-10-19T01:28:57.816Z,87.46
2022-10-19T01:31:44.638Z,87.64
2022-10-19T01:34:36.878Z,87.67
2022-10-19T01:37:25.889Z,87.42
2022-10-19T01:40:15.430Z,87.68
2022-10-19T01:42:47.870Z,87.77
2022-10-19T01:45:21.744Z,87.58
2022-10-19T01:47:55.396Z,87.43
2022-10-19T01:50:39.418Z,87.32
2022-10-19T01:53:08.600Z,87.61
2022-10-19T01:55:39.175Z,87.64
2022-10-19T01:58:09.732Z,87.67
2022-10-19T02:00:41.032Z,87.74
2022-10-19T02:03:09.930Z,87.51
2022-10-19T02:05:38.124Z,87.68
2022-10-19T02:08:12.071Z,87.84
2022-10-19T02:10:42.743Z,87.90
2022-10-19T02:13:10.189Z,87.79
2022-10-19T02:15:40.762Z,87.82
2022-10-19T02:18:10.188Z,87.72
2022-10-19T02:20:37.233Z,87.70
2022-10-19T02:23:05.505Z,87.76
2022-10-19T02:25:33.078Z,87.57
2022-10-19T02:28:02.114Z,87.89
2022-10-19T02:30:28.825Z,87.59
2022-10-19T02:32:55.328Z,87.43
2022-10-19T02:35:22.938Z,88.30
2022-10-19T02:37:49.578Z,88.18
2022-10-19T02:40:16.279Z,87.84
2022-10-19T02:42:52.411Z,87.83
2022-10-19T02:45:24.040Z,87.87
2022-10-19T02:48:02.069Z,87.73
2022-10-19T02:50:29.110Z,87.87
2022-10-19T02:52:55.486Z,88.05
2022-10-19T02:55:21.891Z,87.77
2022-10-19T02:57:48.249Z,87.79
2022-10-19T03:00:14.847Z,88.36
2022-10-19T03:02:41.256Z,88.46
2022-10-19T03:05:09.037Z,88.13
2022-10-19T03:07:36.251Z,88.18
2022-10-19T03:10:03.224Z,88.18
2022-10-19T03:12:29.634Z,88.13
2022-10-19T03:14:56.059Z,87.79
2022-10-19T03:17:22.516Z,87.98
2022-10-19T03:19:48.939Z,88.01
2022-10-19T03:22:15.503Z,88.30
2022-10-19T03:24:41.895Z,88.25
2022-10-19T03:27:08.578Z,88.08
2022-10-19T03:29:35.040Z,88.30
2022-10-19T03:32:01.480Z,88.83
2022-10-19T03:34:27.876Z,88.60
2022-10-19T03:36:54.344Z,88.82
2022-10-19T03:39:20.760Z,88.50
2022-10-19T03:41:47.281Z,88.89
2022-10-19T03:44:13.772Z,88.66
2022-10-19T03:46:40.653Z,88.91
2022-10-19T03:49:07.739Z,88.71
2022-10-19T03:51:34.718Z,88.99
2022-10-19T03:54:07.045Z,88.52
2022-10-19T03:56:35.336Z,89.07
2022-10-19T03:59:03.856Z,88.84
2022-10-19T04:01:31.820Z,89.03
2022-10-19T04:04:01.241Z,88.95
2022-10-19T04:06:30.143Z,89.09
2022-10-19T04:08:57.101Z,89.34
2022-10-19T04:11:29.804Z,88.84
2022-10-19T04:13:57.907Z,89.07
2022-10-19T04:16:25.858Z,88.98
2022-10-19T04:18:52.465Z,89.12
2022-10-19T04:21:30.775Z,88.83
2022-10-19T04:24:05.868Z,89.52
2022-10-19T04:26:33.684Z,89.22
2022-10-19T04:29:01.120Z,89.18
2022-10-19T04:31:28.457Z,89.16
2022-10-19T04:33:55.160Z,89.12
2022-10-19T04:36:21.851Z,89.27
2022-10-19T04:38:48.384Z,89.05
2022-10-19T04:41:17.815Z,89.62
2022-10-19T04:43:45.306Z,89.75
2022-10-19T04:46:15.436Z,89.57
2022-10-19T04:48:42.896Z,89.48
2022-10-19T04:51:10.651Z,89.05
2022-10-19T04:53:38.682Z,89.63
2022-10-19T04:56:08.539Z,89.69
2022-10-19T04:58:35.504Z,89.32
2022-10-19T05:01:19.065Z,89.40
2022-10-19T05:03:46.255Z,89.79
2022-10-19T05:06:13.695Z,89.48
2022-10-19T05:08:40.142Z,89.63
2022-10-19T05:11:14.453Z,89.95
2022-10-19T05:13:41.904Z,89.75
2022-10-19T05:16:15.297Z,89.86
2022-10-19T05:18:42.368Z,89.85
2022-10-19T05:21:11.188Z,89.96
2022-10-19T05:23:38.459Z,89.63
2022-10-19T05:26:08.903Z,89.93
2022-10-19T05:28:35.887Z,90.08
2022-10-19T05:31:06.694Z,90.19
2022-10-19T05:33:34.072Z,89.96
2022-10-19T05:36:29.571Z,89.51
2022-10-19T05:38:57.777Z,90.12
2022-10-19T05:41:26.003Z,90.21
2022-10-19T05:43:54.872Z,89.88
2022-10-19T05:46:21.675Z,89.90
2022-10-19T05:48:48.572Z,90.38
2022-10-19T05:51:18.683Z,90.07
2022-10-19T05:53:45.689Z,89.92
2022-10-19T05:56:17.788Z,90.46
2022-10-19T05:58:44.288Z,90.39
2022-10-19T06:01:11.191Z,90.77
2022-10-19T06:03:37.597Z,90.86
2022-10-19T06:06:05.853Z,90.43
2022-10-19T06:08:32.664Z,89.97
2022-10-19T06:11:14.084Z,90.47
2022-10-19T06:13:41.797Z,90.33
2022-10-19T06:16:09.822Z,90.86
2022-10-19T06:18:36.832Z,90.53
2022-10-19T06:21:08.917Z,90.74
2022-10-19T06:23:35.782Z,90.71
2022-10-19T06:26:04.589Z,90.81
2022-10-19T06:28:31.117Z,90.75
2022-10-19T06:30:58.872Z,90.83
2022-10-19T06:33:26.901Z,90.58
2022-10-19T06:35:53.644Z,90.63
2022-10-19T06:38:20.315Z,90.50
2022-10-19T06:40:47.086Z,90.82
2022-10-19T06:43:13.479Z,90.83
2022-10-19T06:45:40.372Z,91.36
2022-10-19T06:48:07.902Z,90.69
2022-10-19T06:50:35.357Z,91.30
2022-10-19T06:53:01.868Z,91.19
2022-10-19T06:55:28.457Z,91.59
2022-10-19T06:57:54.861Z,91.80
2022-10-19T07:00:21.316Z,91.08
2022-10-19T07:02:47.805Z,91.81
2022-10-19T07:05:14.339Z,91.84
2022-10-19T07:07:40.787Z,91.79
2022-10-19T07:10:07.525Z,92.93
2022-10-19T07:12:33.965Z,92.48
2022-10-19T07:15:00.357Z,93.00
2022-10-19T07:17:26.785Z,93.23
2022-10-19T07:19:53.290Z,93.23
2022-10-19T07:22:23.272Z,93.44
2022-10-19T07:24:54.604Z,93.12
2022-10-19T07:27:21.039Z,93.49
2022-10-19T07:29:47.482Z,94.03
2022-10-19T07:32:13.918Z,94.30
2022-10-19T07:34:40.307Z,94.27
2022-10-19T07:37:06.771Z,94.33
2022-10-19T07:39:33.286Z,94.92
2022-10-19T07:41:59.700Z,95.42
2022-10-19T07:44:26.381Z,95.17
2022-10-19T07:46:52.801Z,95.63
2022-10-19T07:49:19.997Z,95.72
2022-10-19T07:51:47.112Z,96.20
2022-10-19T07:54:13.686Z,96.01
2022-10-19T07:56:40.462Z,96.65
2022-10-19T07:59:07.031Z,96.43
2022-10-19T08:01:38.362Z,96.80
2022-10-19T08:06:51.340Z,97.09
2022-10-19T08:09:40.116Z,97.10
2022-10-19T08:12:05.784Z,97.60
2022-10-19T08:14:32.565Z,97.59
2022-10-19T08:16:59.038Z,98.19
2022-10-19T08:19:25.514Z,97.96
2022-10-19T08:21:52.141Z,98.53
2022-10-19T08:24:19.886Z,98.38
2022-10-19T08:26:46.718Z,98.48
2022-10-19T08:29:15.890Z,98.75
2022-10-19T08:31:43.842Z,99.38
2022-10-19T08:34:10.642Z,99.39
2022-10-19T08:36:37.214Z,99.43
2022-10-19T08:39:05.944Z,99.50
2022-10-19T08:41:32.426Z,99.06
2022-10-19T08:44:20.265Z,98.59
2022-10-19T08:47:00.521Z,98.70
2022-10-19T08:49:31.761Z,98.87
2022-10-19T08:52:00.707Z,98.62
2022-10-19T08:54:54.314Z,98.43
2022-10-19T08:57:34.757Z,98.35
2022-10-19T09:00:18.865Z,98.05
2022-10-19T09:03:11.981Z,98.05
2022-10-19T09:05:47.816Z,97.44
2022-10-19T09:08:17.795Z,97.79
2022-10-19T09:10:48.744Z,96.99
2022-10-19T09:13:36.419Z,96.76
2022-10-19T09:16:17.470Z,96.09
2022-10-19T09:18:46.874Z,95.95
2022-10-19T09:21:34.449Z,96.39
2022-10-19T09:24:24.774Z,96.02
2022-10-19T09:26:54.401Z,95.76
2022-10-19T09:29:27.859Z,95.22
2022-10-19T09:35:02.621Z,94.01
2022-10-19T09:37:31.167Z,93.61
2022-10-19T09:39:57.664Z,93.38
2022-10-19T09:42:30.123Z,93.20
2022-10-19T09:44:58.537Z,92.66
2022-10-19T09:47:34.597Z,92.06
2022-10-19T09:50:26.970Z,91.22
2022-10-19T09:52:56.584Z,91.30
2022-10-19T09:55:22.940Z,89.65
2022-10-19T09:57:58.368Z,89.38
2022-10-19T10:00:32.181Z,89.20
2022-10-19T10:02:58.713Z,89.00
2022-10-19T10:05:34.464Z,87.87
2022-10-19T10:08:01.526Z,87.26
2022-10-19T10:10:39.216Z,85.92
2022-10-19T10:13:06.132Z,86.07
2022-10-19T10:15:43.325Z,85.54
2022-10-19T10:18:15.558Z,85.24
2022-10-19T10:21:05.868Z,84.89
2022-10-19T10:23:36.263Z,84.07
2022-10-19T10:26:04.717Z,82.82
2022-10-19T10:28:31.617Z,82.48
2022-10-19T10:31:08.828Z,82.09
2022-10-19T10:33:44.645Z,81.75
2022-10-19T10:36:12.336Z,81.13
2022-10-19T10:38:51.740Z,81.07
2022-10-19T10:41:23.263Z,80.97
2022-10-19T10:44:04.531Z,81.08
2022-10-19T10:47:02.519Z,81.19
2022-10-19T10:49:35.139Z,80.70
2022-10-19T10:52:06.496Z,80.25
2022-10-19T10:54:33.498Z,80.06
2022-10-19T10:57:05.589Z,79.15
2022-10-19T10:59:44.720Z,79.23
2022-10-19T11:02:42.307Z,79.37
2022-10-19T11:05:19.496Z,79.24
2022-10-19T11:07:50.472Z,78.74
2022-10-19T11:10:24.307Z,78.64
2022-10-19T11:13:07.130Z,78.62
2022-10-19T11:16:06.669Z,78.78
2022-10-19T11:18:46.067Z,78.48
2022-10-19T11:21:20.217Z,77.60
2022-10-19T11:24:17.546Z,78.69
2022-10-19T11:27:22.077Z,77.51
2022-10-19T11:30:04.180Z,76.62
2022-10-19T11:32:35.872Z,75.39
2022-10-19T11:35:25.785Z,75.45
2022-10-19T11:38:18.323Z,75.44
2022-10-19T11:41:17.882Z,75.56
2022-10-19T11:44:01.563Z,74.81
2022-10-19T11:46:49.120Z,75.08
2022-10-19T11:49:54.587Z,75.24
2022-10-19T11:52:34.639Z,75.07
2022-10-19T11:55:04.700Z,73.79
2022-10-19T11:57:38.203Z,72.51
2022-10-19T12:00:27.338Z,72.76
2022-10-19T12:03:19.614Z,72.27
2022-10-19T12:06:01.227Z,71.96
2022-10-19T12:08:51.189Z,71.75
2022-10-19T12:11:27.547Z,71.78
2022-10-19T12:13:59.479Z,71.69
2022-10-19T12:16:38.154Z,72.00
2022-10-19T12:19:06.562Z,72.14
2022-10-19T12:21:43.179Z,71.49
2022-10-19T12:24:15.802Z,71.41
2022-10-19T12:26:44.411Z,71.69
2022-10-19T12:29:26.916Z,72.07
2022-10-19T12:31:56.070Z,71.20
2022-10-19T12:35:13.880Z,71.76
2022-10-19T12:38:05.522Z,71.12
2022-10-19T12:40:53.997Z,71.37
2022-10-19T12:43:33.989Z,70.05
2022-10-19T12:46:00.410Z,70.49
2022-10-19T12:48:26.840Z,70.53
2022-10-19T12:50:53.948Z,70.23
2022-10-19T12:53:32.439Z,70.96
2022-10-19T12:56:07.171Z,70.01
2022-10-19T12:58:43.622Z,70.04
2022-10-19T13:01:34.480Z,70.67
2022-10-19T13:04:09.062Z,69.49
2022-10-19T13:06:39.496Z,69.67
2022-10-19T13:09:09.100Z,68.59
2022-10-19T13:11:38.297Z,68.69
2022-10-19T13:14:20.095Z,69.06
2022-10-19T13:16:57.177Z,68.70
2022-10-19T13:19:23.816Z,68.21
2022-10-19T13:21:51.445Z,68.18
2022-10-19T13:24:23.910Z,68.42
2022-10-19T13:27:02.476Z,68.62
2022-10-19T13:29:41.206Z,68.64
2022-10-19T13:32:36.435Z,68.77
2022-10-19T13:35:21.577Z,69.39
2022-10-19T13:38:10.262Z,68.97
2022-10-19T13:40:39.205Z,68.34
2022-10-19T13:43:05.643Z,67.88
2022-10-19T13:45:32.169Z,67.52
2022-10-19T13:48:14.595Z,67.84
2022-10-19T13:50:47.968Z,67.41
2022-10-19T13:53:23.573Z,67.29
2022-10-19T13:56:22.413Z,67.69
2022-10-19T13:59:24.742Z,67.24
2022-10-19T14:01:54.284Z,67.08
2022-10-19T14:04:50.486Z,67.70
2022-10-19T14:07:25.333Z,67.32
2022-10-19T14:10:32.655Z,67.83
2022-10-19T14:13:00.542Z,66.96
2022-10-19T14:15:32.200Z,67.06
2022-10-19T14:18:02.387Z,67.23
2022-10-19T14:20:38.289Z,67.53
2022-10-19T14:23:23.914Z,67.70
2022-10-19T14:25:53.156Z,67.53
2022-10-19T14:28:21.922Z,67.87
2022-10-19T14:31:00.498Z,68.40
2022-10-19T14:33:30.189Z,68.49
2022-10-19T14:35:57.010Z,67.89
2022-10-19T14:38:27.841Z,68.31
2022-10-19T14:40:55.797Z,68.82
2022-10-19T14:43:25.807Z,68.66
2022-10-19T14:46:10.873Z,68.55
2022-10-19T14:48:48.966Z,68.13
2022-10-19T14:51:30.854Z,68.35
2022-10-19T14:54:08.137Z,68.87
2022-10-19T14:56:58.545Z,68.54
2022-10-19T14:59:29.948Z,68.67
2022-10-19T15:02:00.127Z,68.98
2022-10-19T15:04:31.570Z,69.19
2022-10-19T15:07:01.030Z,68.76
2022-10-19T15:09:37.460Z,69.22
2022-10-19T15:12:17.070Z,69.18
2022-10-19T15:14:45.343Z,69.32
2022-10-19T15:17:30.076Z,69.35
2022-10-19T15:20:00.811Z,69.61
2022-10-19T15:22:30.571Z,69.56
2022-10-19T15:25:06.208Z,69.97
2022-10-19T15:27:45.565Z,70.21
2022-10-19T15:30:17.907Z,70.04
2022-10-19T15:33:08.304Z,70.32
2022-10-19T15:35:37.426Z,70.87
2022-10-19T15:38:22.737Z,70.83
2022-10-19T15:40:49.670Z,70.91
2022-10-19T15:43:34.436Z,71.02
2022-10-19T15:46:03.839Z,71.46
2022-10-19T15:48:44.349Z,71.46
2022-10-19T15:51:33.057Z,72.18
2022-10-19T15:54:05.601Z,71.91
2022-10-19T15:56:36.816Z,72.35
2022-10-19T15:59:06.504Z,72.75
2022-10-19T16:01:34.379Z,72.79
2022-10-19T16:04:01.041Z,73.24
2022-10-19T16:06:33.095Z,73.12
2022-10-19T16:09:00.721Z,73.19
2022-10-19T16:11:28.967Z,73.48
2022-10-19T16:13:55.481Z,73.51
2022-10-19T16:16:26.741Z,73.87
2022-10-19T16:18:54.550Z,74.17
2022-10-19T16:21:24.284Z,74.48
2022-10-19T16:23:50.752Z,74.56
2022-10-19T16:26:19.621Z,74.80
2022-10-19T16:28:46.079Z,74.92
2022-10-19T16:31:12.510Z,75.26
2022-10-19T16:33:39.021Z,75.37
2022-10-19T16:36:07.337Z,75.51
2022-10-19T16:38:34.890Z,75.77
2022-10-19T16:41:09.009Z,75.84
2022-10-19T16:43:36.355Z,76.16
2022-10-19T16:46:03.915Z,76.06
2022-10-19T16:48:30.679Z,76.32
2022-10-19T16:51:06.499Z,76.36
2022-10-19T16:53:33.694Z,76.35
2022-10-19T16:56:08.916Z,76.42
2022-10-19T16:58:37.210Z,76.41
2022-10-19T17:01:11.772Z,76.41
2022-10-19T17:03:38.372Z,76.48
2022-10-19T17:06:07.066Z,76.74
2022-10-19T17:08:37.084Z,76.71
2022-10-19T17:11:20.653Z,76.46
2022-10-19T17:13:49.405Z,77.01
2022-10-19T17:16:18.276Z,76.83
2022-10-19T17:18:45.075Z,76.88
2022-10-19T17:21:14.823Z,76.72
2022-10-19T17:23:42.015Z,77.16
2022-10-19T17:26:09.228Z,77.11
2022-10-19T17:28:36.928Z,77.31
2022-10-19T17:31:05.785Z,77.32
2022-10-19T17:33:32.625Z,77.45
2022-10-19T17:36:08.498Z,77.47
2022-10-19T17:38:36.428Z,77.77
2022-10-19T17:41:14.602Z,77.78
2022-10-19T17:43:45.858Z,78.09
2022-10-19T17:46:14.274Z,78.08
2022-10-19T17:48:42.840Z,78.02
2022-10-19T17:51:15.896Z,77.77
2022-10-19T17:53:46.157Z,78.07
2022-10-19T17:56:15.726Z,78.19
2022-10-19T17:58:42.590Z,78.41
2022-10-19T18:01:11.077Z,78.44
2022-10-19T18:03:38.773Z,78.38
2022-10-19T18:06:10.792Z,78.41
2022-10-19T18:08:43.247Z,78.54
2022-10-19T18:11:15.958Z,78.55
2022-10-19T18:13:43.133Z,78.23
2022-10-19T18:16:12.885Z,78.42
2022-10-19T18:18:41.947Z,78.81
2022-10-19T18:21:13.506Z,78.79
2022-10-19T18:23:40.325Z,78.39
2022-10-19T18:26:10.649Z,78.65
2022-10-19T18:28:37.667Z,78.47
2022-10-19T18:31:08.841Z,78.44
2022-10-19T18:33:36.084Z,78.85
2022-10-19T18:36:04.099Z,78.74
2022-10-19T18:38:30.713Z,78.97
2022-10-19T18:41:05.589Z,78.99
2022-10-19T18:43:32.180Z,79.05
2022-10-19T18:46:00.211Z,79.07
2022-10-19T18:48:29.229Z,78.95
2022-10-19T18:50:57.228Z,79.41
2022-10-19T18:53:24.152Z,79.36
2022-10-19T18:56:07.390Z,79.07
2022-10-19T18:58:34.824Z,79.25
2022-10-19T19:01:04.193Z,79.47
2022-10-19T19:03:30.967Z,79.71
2022-10-19T19:06:05.864Z,79.31
2022-10-19T19:08:32.536Z,79.64
2022-10-19T19:11:15.961Z,79.38
2022-10-19T19:13:51.015Z,79.55
2022-10-19T19:16:17.704Z,79.40
2022-10-19T19:18:44.186Z,79.54
2022-10-19T19:21:22.677Z,79.64
2022-10-19T19:23:50.327Z,79.79
2022-10-19T19:26:17.954Z,80.21
2022-10-19T19:28:49.060Z,80.09
2022-10-19T19:31:18.955Z,80.12
2022-10-19T19:33:46.979Z,79.81
2022-10-19T19:36:15.577Z,80.07
2022-10-19T19:38:42.543Z,79.94
2022-10-19T19:41:12.900Z,80.10
2022-10-19T19:43:39.477Z,80.35
2022-10-19T19:46:12.528Z,80.88
2022-10-19T19:48:41.112Z,80.99
2022-10-19T19:51:09.181Z,80.79
2022-10-19T19:53:36.895Z,80.78
2022-10-19T19:56:03.792Z,81.06
2022-10-19T19:58:30.188Z,81.48
2022-10-19T20:00:56.590Z,81.32
2022-10-19T20:03:23.028Z,81.11
2022-10-19T20:05:49.433Z,80.92
2022-10-19T20:08:15.849Z,81.22
2022-10-19T20:10:43.541Z,81.06
2022-10-19T20:13:09.914Z,81.40
2022-10-19T20:15:39.629Z,81.20
2022-10-19T20:18:06.427Z,81.40
2022-10-19T20:20:32.912Z,81.93
2022-10-19T20:22:59.392Z,81.58
2022-10-19T20:25:25.852Z,81.74
2022-10-19T20:27:52.236Z,82.13
2022-10-19T20:30:18.720Z,81.74
2022-10-19T20:32:45.126Z,82.12
2022-10-19T20:35:11.553Z,82.25
2022-10-19T20:37:37.953Z,82.08
2022-10-19T20:40:08.519Z,82.45
2022-10-19T20:42:35.863Z,82.44
2022-10-19T20:45:02.668Z,82.25
2022-10-19T20:47:29.462Z,82.21
2022-10-19T20:49:55.880Z,82.54
2022-10-19T20:52:22.323Z,82.59
2022-10-19T20:54:49.282Z,82.97
2022-10-19T20:57:15.741Z,82.87
2022-10-19T20:59:43.831Z,82.85
2022-10-19T21:02:11.481Z,82.95
2022-10-19T21:04:37.949Z,82.89
2022-10-19T21:07:05.008Z,82.88
2022-10-19T21:09:31.883Z,83.34
2022-10-19T21:11:58.585Z,83.70
2022-10-19T21:14:28.383Z,83.29
2022-10-19T21:16:57.327Z,83.88
2022-10-19T21:19:25.781Z,84.32
2022-10-19T21:21:57.868Z,83.77
2022-10-19T21:24:26.978Z,83.55
2022-10-19T21:26:54.076Z,83.72
2022-10-19T21:29:20.593Z,83.89
2022-10-19T21:31:49.422Z,83.65
2022-10-19T21:34:25.338Z,84.20
2022-10-19T21:36:52.268Z,83.89
2022-10-19T21:39:19.554Z,84.43
2022-10-19T21:41:46.703Z,84.40
2022-10-19T21:44:14.749Z,84.01
2022-10-19T21:46:43.466Z,84.79
2022-10-19T21:49:13.041Z,84.52
2022-10-19T21:51:43.628Z,84.82
2022-10-19T21:54:15.948Z,84.84
2022-10-19T21:56:43.227Z,85.06
2022-10-19T21:59:09.773Z,84.80
2022-10-19T22:01:40.163Z,84.81
2022-10-19T22:04:11.732Z,84.79
2022-10-19T22:06:38.252Z,85.50
2022-10-19T22:09:06.857Z,85.09
2022-10-19T22:11:34.071Z,85.13
2022-10-19T22:14:02.530Z,85.86
2022-10-19T22:16:30.083Z,85.79
2022-10-19T22:18:57.276Z,85.65
2022-10-19T22:21:26.902Z,85.38
2022-10-19T22:23:56.495Z,86.28
2022-10-19T22:26:29.031Z,85.76
2022-10-19T22:28:57.122Z,85.65
2022-10-19T22:31:24.890Z,86.20
2022-10-19T22:33:51.364Z,86.49
2022-10-19T22:36:18.363Z,86.19
2022-10-19T22:38:45.092Z,85.88
2022-10-19T22:42:07.609Z,86.23
2022-10-19T22:44:34.058Z,86.32
2022-10-19T22:47:00.495Z,86.69
2022-10-19T22:49:26.898Z,86.84
2022-10-19T22:51:53.296Z,86.25
2022-10-19T22:54:19.728Z,86.87
2022-10-19T22:56:46.251Z,86.50
2022-10-19T22:59:12.795Z,86.84
2022-10-19T23:01:39.315Z,86.78
2022-10-19T23:04:06.132Z,86.69
2022-10-19T23:06:32.901Z,87.00
2022-10-19T23:08:59.370Z,86.92
2022-10-19T23:11:25.819Z,87.20
2022-10-19T23:13:52.269Z,87.53
2022-10-19T23:16:18.761Z,86.83
2022-10-19T23:18:45.253Z,87.31
2022-10-19T23:21:13.277Z,87.22
2022-10-19T23:23:40.222Z,87.51
2022-10-19T23:26:12.915Z,87.43
2022-10-19T23:28:40.967Z,87.26
2022-10-19T23:31:10.673Z,87.72
2022-10-19T23:33:37.306Z,87.59
2022-10-19T23:36:11.426Z,88.15
2022-10-19T23:38:37.868Z,87.89
2022-10-19T23:41:04.721Z,87.45
2022-10-19T23:43:31.584Z,87.69
2022-10-19T23:45:58.124Z,87.81
2022-10-19T23:48:25.287Z,88.31
2022-10-19T23:50:59.584Z,87.85
2022-10-19T23:53:26.459Z,87.87
2022-10-19T23:55:58.948Z,88.32
2022-10-19T23:58:25.479Z,88.18
